Time;durP1;ratioP1;P1;durP2;ratioP2;P2;SDS_P1;SDS_P2;PMS_P1;PMS_P2;Temp;Humidity;BMP_temperature;BMP_pressure;BME280_temperature;BME280_humidity;BME280_pressure;Samples;Min_cycle;Max_cycle;Signal;HPM_P1;HPM_P2
2023/05/14 00:03:06;;;;;;;3.05;2.13;;;;;;;;;;4961289;28;20042;-60
2023/05/14 00:06:21;;;;;;;3.83;2.38;;;;;;;;;;4932461;28;20424;-62
2023/05/14 00:12:36;;;;;;;2.92;2.03;;;;;;;;;;4966438;28;20581;-64
2023/05/14 00:15:51;;;;;;;2.80;1.90;;;;;;;;;;4981327;28;20524;-62
2023/05/14 00:25:40;;;;;;;2.85;2.00;;;;;;;;;;4931593;28;20521;-64
2023/05/14 00:51:20;;;;;;;2.25;1.73;;;;;;;;;;4959525;28;20077;-65
2023/05/14 01:28:36;;;;;;;2.55;1.90;;;;;;;;;;4892975;29;20722;-60
2023/05/14 01:40:44;;;;;;;2.70;1.95;;;;;;;;;;4958840;28;20177;-64
2023/05/14 01:43:59;;;;;;;2.80;1.85;;;;;;;;;;4972555;28;20057;-65
2023/05/14 01:50:22;;;;;;;2.38;1.55;;;;;;;;;;4957470;28;20042;-64
2023/05/14 01:56:47;;;;;;;3.00;1.95;;;;;;;;;;4978447;28;20037;-59
2023/05/14 01:59:36;;;;;;;2.85;1.80;;;;;;;;;;4956332;28;20446;-64
2023/05/14 02:09:26;;;;;;;2.58;1.65;;;;;;;;;;4976518;28;20136;-65
2023/05/14 02:12:40;;;;;;;2.17;1.60;;;;;;;;;;4942399;28;20053;-65
2023/05/14 02:29:01;;;;;;;2.75;1.85;;;;;;;;;;4971392;28;20135;-63
2023/05/14 02:41:12;;;;;;;2.65;1.65;;;;;;;;;;4957912;28;20137;-64
2023/05/14 02:50:34;;;;;;;;;;;;;;;;;;4978692;28;20168;-64
2023/05/14 02:56:57;;;;;;;2.35;1.50;;;;;;;;;;4956259;28;20332;-63
2023/05/14 03:22:41;;;;;;;2.65;1.55;;;;;;;;;;4958244;28;20201;-63
2023/05/14 03:32:36;;;;;;;2.47;1.60;;;;;;;;;;4957739;28;20034;-63
2023/05/14 03:36:06;;;;;;;2.40;1.70;;;;;;;;;;4912960;29;20035;-63
2023/05/14 03:55:06;;;;;;;2.10;1.38;;;;;;;;;;4942225;28;20138;-66
2023/05/14 04:01:47;;;;;;;3.20;1.80;;;;;;;;;;4906519;28;20492;-59
2023/05/14 04:08:09;;;;;;;2.03;1.60;;;;;;;;;;4943588;28;20053;-63
2023/05/14 04:17:50;;;;;;;2.70;1.60;;;;;;;;;;4972829;28;20145;-66
2023/05/14 04:20:49;;;;;;;;;;;;;;;;;;4975089;28;20419;-64
2023/05/14 04:27:29;;;;;;;2.00;1.67;;;;;;;;;;4982177;28;20101;-65
2023/05/14 04:37:03;;;;;;;2.30;1.58;;;;;;;;;;4919662;28;20117;-67
2023/05/14 04:40:04;;;;;;;2.45;1.63;;;;;;;;;;4921043;28;20117;-64
2023/05/14 04:43:03;;;;;;;2.38;1.65;;;;;;;;;;4921024;28;20074;-66
2023/05/14 04:45:47;;;;;;;;;;;;;;;;;;4918749;28;20047;-68
2023/05/14 04:48:34;;;;;;;1.95;1.35;;;;;;;;;;4932136;28;20367;-60
2023/05/14 04:51:20;;;;;;;3.42;1.70;;;;;;;;;;4928993;28;20555;-66
2023/05/14 04:54:27;;;;;;;1.88;1.50;;;;;;;;;;4926546;28;20039;-66
2023/05/14 04:57:32;;;;;;;1.88;1.60;;;;;;;;;;4922447;28;20047;-69
2023/05/14 05:00:34;;;;;;;2.05;1.50;;;;;;;;;;4924056;28;20055;-62
2023/05/14 05:03:38;;;;;;;1.52;1.27;;;;;;;;;;4900794;29;20098;-60
2023/05/14 05:06:33;;;;;;;2.38;1.55;;;;;;;;;;4926807;28;20074;-60
2023/05/14 05:09:31;;;;;;;2.67;1.70;;;;;;;;;;4924389;28;20043;-64
2023/05/14 05:12:29;;;;;;;3.08;1.70;;;;;;;;;;4935068;28;20031;-60
2023/05/14 05:15:20;;;;;;;1.95;1.20;;;;;;;;;;4910750;28;20098;-63
2023/05/14 05:18:08;;;;;;;2.15;1.38;;;;;;;;;;4905924;28;20055;-64
2023/05/14 05:21:22;;;;;;;2.85;1.80;;;;;;;;;;4928142;28;20603;-63
2023/05/14 05:24:38;;;;;;;2.00;1.45;;;;;;;;;;4911673;28;20078;-65
2023/05/14 05:40:22;;;;;;;2.00;1.42;;;;;;;;;;4919015;28;20129;-64
2023/05/14 05:46:45;;;;;;;2.45;1.48;;;;;;;;;;4925351;28;20485;-64
2023/05/14 05:50:11;;;;;;;1.77;1.38;;;;;;;;;;4884281;28;20066;-64
2023/05/14 05:53:27;;;;;;;1.85;1.50;;;;;;;;;;4948519;28;20063;-60
2023/05/14 06:03:00;;;;;;;1.98;1.52;;;;;;;;;;4946582;28;20184;-64
2023/05/14 06:06:08;;;;;;;3.25;1.63;;;;;;;;;;4917298;28;20575;-65
2023/05/14 06:12:28;;;;;;;2.08;1.30;;;;;;;;;;4952532;28;20043;-67
2023/05/14 06:15:43;;;;;;;2.25;1.50;;;;;;;;;;4940621;28;20046;-66
2023/05/14 06:22:10;;;;;;;2.08;1.38;;;;;;;;;;4930384;28;20093;-66
2023/05/14 06:31:19;;;;;;;2.92;1.63;;;;;;;;;;4926126;28;20137;-66
2023/05/14 06:34:27;;;;;;;1.73;1.30;;;;;;;;;;4928050;28;20031;-66
2023/05/14 06:40:57;;;;;;;1.95;1.50;;;;;;;;;;4930817;28;20127;-67
2023/05/14 06:44:10;;;;;;;1.77;1.30;;;;;;;;;;4955277;28;20047;-67
2023/05/14 06:47:12;;;;;;;1.95;1.30;;;;;;;;;;4915664;29;20095;-60
2023/05/14 06:50:18;;;;;;;1.95;1.40;;;;;;;;;;4915989;29;20522;-60
2023/05/14 06:53:06;;;;;;;2.37;1.47;;;;;;;;;;4924504;28;20118;-66
2023/05/14 06:59:02;;;;;;;2.42;1.38;;;;;;;;;;4896291;28;20074;-65
2023/05/14 07:05:32;;;;;;;5.95;1.80;;;;;;;;;;4903475;28;20130;-61
2023/05/14 07:11:47;;;;;;;3.38;1.55;;;;;;;;;;4905214;28;20444;-58
2023/05/14 07:15:11;;;;;;;2.45;1.65;;;;;;;;;;4921222;28;20036;-59
2023/05/14 07:18:08;;;;;;;3.13;1.50;;;;;;;;;;4931258;28;20055;-66
2023/05/14 07:21:06;;;;;;;3.47;1.42;;;;;;;;;;4905965;28;20036;-62
2023/05/14 07:24:05;;;;;;;3.55;1.75;;;;;;;;;;4924393;28;20047;-59
2023/05/14 07:27:07;;;;;;;2.03;1.60;;;;;;;;;;4928410;28;20043;-68
2023/05/14 07:30:01;;;;;;;2.45;1.60;;;;;;;;;;4936595;28;20051;-66
2023/05/14 07:33:01;;;;;;;3.00;1.50;;;;;;;;;;4923288;28;20204;-66
2023/05/14 07:36:00;;;;;;;2.75;1.45;;;;;;;;;;4907545;28;20461;-64
2023/05/14 07:39:10;;;;;;;2.58;1.40;;;;;;;;;;4922795;28;20301;-66
2023/05/14 07:42:04;;;;;;;2.30;1.33;;;;;;;;;;4927725;28;20138;-65
2023/05/14 07:45:01;;;;;;;3.40;1.50;;;;;;;;;;4926176;28;20211;-67
2023/05/14 07:48:01;;;;;;;2.67;1.58;;;;;;;;;;4905918;29;22767;-65
2023/05/14 07:51:06;;;;;;;3.22;1.40;;;;;;;;;;4896130;28;20354;-66
2023/05/14 07:53:45;;;;;;;2.00;1.35;;;;;;;;;;4938052;28;20065;-68
2023/05/14 07:56:32;;;;;;;2.20;1.60;;;;;;;;;;4919705;28;20043;-61
2023/05/14 07:59:32;;;;;;;2.75;1.55;;;;;;;;;;4927245;28;20046;-58
2023/05/14 08:02:30;;;;;;;2.55;1.50;;;;;;;;;;4901297;28;20043;-64
2023/05/14 08:05:31;;;;;;;3.08;1.55;;;;;;;;;;4910299;28;20057;-60
2023/05/14 08:08:22;;;;;;;3.03;1.55;;;;;;;;;;4921005;28;20051;-62
2023/05/14 08:11:23;;;;;;;3.60;1.65;;;;;;;;;;4936335;28;20047;-65
2023/05/14 08:14:29;;;;;;;2.20;1.70;;;;;;;;;;4930420;28;20047;-61
2023/05/14 08:17:09;;;;;;;3.83;1.58;;;;;;;;;;4909803;28;20491;-62
2023/05/14 08:20:10;;;;;;;4.10;1.67;;;;;;;;;;4928876;28;20058;-60
2023/05/14 08:22:46;;;;;;;2.10;1.40;;;;;;;;;;4926098;28;20046;-60
2023/05/14 08:25:32;;;;;;;3.33;1.42;;;;;;;;;;4929761;28;20444;-64
2023/05/14 08:28:21;;;;;;;3.80;1.77;;;;;;;;;;4944580;28;20134;-65
2023/05/14 08:31:07;;;;;;;3.13;1.65;;;;;;;;;;4914093;28;20534;-64
2023/05/14 08:34:08;;;;;;;2.75;1.45;;;;;;;;;;4924434;28;20580;-65
2023/05/14 08:36:47;;;;;;;3.35;1.48;;;;;;;;;;4920385;28;20039;-65
2023/05/14 08:39:53;;;;;;;3.75;2.00;;;;;;;;;;4928944;28;20027;-64
2023/05/14 08:42:53;;;;;;;3.72;1.40;;;;;;;;;;4941716;28;20154;-63
2023/05/14 08:45:57;;;;;;;2.42;1.50;;;;;;;;;;4921989;28;20102;-65
2023/05/14 08:52:07;;;;;;;4.30;1.80;;;;;;;;;;4927863;28;20043;-66
2023/05/14 08:55:10;;;;;;;3.35;1.70;;;;;;;;;;4927462;28;20321;-66
2023/05/14 08:58:16;;;;;;;2.95;1.50;;;;;;;;;;4912920;28;20515;-65
2023/05/14 09:01:16;;;;;;;3.38;1.67;;;;;;;;;;4926856;28;20027;-64
2023/05/14 09:04:24;;;;;;;4.85;1.75;;;;;;;;;;4905628;28;20035;-65
2023/05/14 09:07:28;;;;;;;3.08;1.58;;;;;;;;;;4936960;28;20559;-61
2023/05/14 09:13:46;;;;;;;3.13;1.60;;;;;;;;;;4913060;28;20058;-61
2023/05/14 09:19:57;;;;;;;3.90;1.60;;;;;;;;;;4928426;28;20171;-64
2023/05/14 09:23:06;;;;;;;2.03;1.50;;;;;;;;;;4937472;28;20146;-59
2023/05/14 09:38:37;;;;;;;3.95;1.60;;;;;;;;;;4943264;28;20042;-66
2023/05/14 09:42:11;;;;;;;2.63;1.67;;;;;;;;;;4956554;28;20389;-66
2023/05/14 09:48:25;;;;;;;2.38;1.38;;;;;;;;;;4920758;28;20088;-64
2023/05/14 09:51:41;;;;;;;3.38;1.58;;;;;;;;;;4927526;29;20043;-62
2023/05/14 10:01:08;;;;;;;3.25;1.63;;;;;;;;;;4936155;28;20041;-64
2023/05/14 10:10:56;;;;;;;2.58;1.73;;;;;;;;;;4957557;28;20046;-65
2023/05/14 10:17:40;;;;;;;2.97;1.80;;;;;;;;;;4951588;28;20184;-66
2023/05/14 10:29:48;;;;;;;3.45;1.63;;;;;;;;;;4951611;28;20448;-60
2023/05/14 10:55:20;;;;;;;2.88;1.60;;;;;;;;;;4949635;28;20053;-65
2023/05/14 11:01:53;;;;;;;2.78;1.88;;;;;;;;;;4932943;28;20171;-64
2023/05/14 11:04:41;;;;;;;2.53;1.50;;;;;;;;;;4957204;28;20393;-64
2023/05/14 11:11:31;;;;;;;2.85;1.70;;;;;;;;;;4946226;28;20208;-65
2023/05/14 11:17:57;;;;;;;3.13;1.70;;;;;;;;;;4950176;28;20070;-64
2023/05/14 11:27:35;;;;;;;2.58;1.90;;;;;;;;;;4925606;29;20583;-64
2023/05/14 11:40:41;;;;;;;2.22;1.70;;;;;;;;;;4907104;29;20121;-60
2023/05/14 11:43:56;;;;;;;2.60;1.90;;;;;;;;;;4901462;29;20052;-64
2023/05/14 11:53:27;;;;;;;2.22;1.60;;;;;;;;;;4936835;28;20512;-64
2023/05/14 11:56:43;;;;;;;3.75;1.85;;;;;;;;;;4918461;29;20451;-65
2023/05/14 12:06:23;;;;;;;2.67;1.67;;;;;;;;;;4950232;28;20053;-64
2023/05/14 12:13:13;;;;;;;6.45;3.90;;;;;;;;;;4935906;28;20042;-67
2023/05/14 12:16:22;;;;;;;7.15;3.45;;;;;;;;;;4906958;28;20035;-68
2023/05/14 12:19:26;;;;;;;4.78;3.45;;;;;;;;;;4920975;28;20051;-65
2023/05/14 12:22:26;;;;;;;4.18;3.42;;;;;;;;;;4925765;28;20542;-72
2023/05/14 12:35:35;;;;;;;5.25;3.85;;;;;;;;;;4951698;28;20065;-65
2023/05/14 12:41:53;;;;;;;4.82;4.00;;;;;;;;;;4912384;28;20107;-66
2023/05/14 12:45:09;;;;;;;5.28;3.97;;;;;;;;;;4929087;28;20043;-66
2023/05/14 12:48:22;;;;;;;3.85;3.05;;;;;;;;;;4929759;28;20114;-67
2023/05/14 12:51:33;;;;;;;3.47;2.80;;;;;;;;;;4925838;28;20116;-62
2023/05/14 12:54:40;;;;;;;3.58;2.75;;;;;;;;;;4918109;28;20043;-57
2023/05/14 12:57:42;;;;;;;3.75;2.60;;;;;;;;;;4910194;28;20051;-65
2023/05/14 13:00:58;;;;;;;3.50;2.70;;;;;;;;;;4929066;28;20091;-61
2023/05/14 13:04:12;;;;;;;4.60;3.97;;;;;;;;;;4900103;28;20067;-63
2023/05/14 13:07:02;;;;;;;4.43;3.25;;;;;;;;;;4889609;29;20050;-67
2023/05/14 13:09:50;;;;;;;4.75;3.15;;;;;;;;;;4907615;29;20819;-69
2023/05/14 13:16:15;;;;;;;3.28;2.75;;;;;;;;;;4898482;28;20160;-61
2023/05/14 13:19:31;;;;;;;4.25;2.95;;;;;;;;;;4911059;28;20205;-68
2023/05/14 13:25:49;;;;;;;4.68;3.03;;;;;;;;;;4911947;28;20975;-65
2023/05/14 13:29:00;;;;;;;4.45;2.65;;;;;;;;;;4901894;28;20063;-66
2023/05/14 13:32:02;;;;;;;4.35;2.83;;;;;;;;;;4910260;28;20532;-62
2023/05/14 13:35:06;;;;;;;3.25;2.60;;;;;;;;;;4911585;28;20051;-62
2023/05/14 13:38:02;;;;;;;3.83;2.67;;;;;;;;;;4889497;29;20075;-62
2023/05/14 13:41:13;;;;;;;4.07;2.97;;;;;;;;;;4917526;28;21829;-61
2023/05/14 13:44:21;;;;;;;3.60;2.63;;;;;;;;;;4939307;28;20508;-61
2023/05/14 13:47:41;;;;;;;5.25;2.92;;;;;;;;;;4914288;28;20041;-62
2023/05/14 13:56:54;;;;;;;3.40;2.60;;;;;;;;;;4925218;28;20030;-59
2023/05/14 14:19:09;;;;;;;4.78;3.10;;;;;;;;;;4934671;28;20121;-59
2023/05/14 14:25:13;;;;;;;3.58;2.80;;;;;;;;;;4909355;28;20438;-62
2023/05/14 14:28:28;;;;;;;4.63;2.72;;;;;;;;;;4942217;28;20058;-62
2023/05/14 14:31:10;;;;;;;3.13;2.53;;;;;;;;;;4873475;28;20043;-57
2023/05/14 14:33:51;;;;;;;3.90;2.50;;;;;;;;;;4893459;28;20322;-58
2023/05/14 14:36:23;;;;;;;;;;;;;;;;;;4889508;28;20168;-59
2023/05/14 14:39:20;;;;;;;3.67;2.85;;;;;;;;;;4890452;28;19914;-59
2023/05/14 14:42:27;;;;;;;3.45;2.85;;;;;;;;;;5129493;23;20057;-59
2023/05/14 14:45:14;;;;;;;3.25;2.47;;;;;;;;;;4996649;28;20033;-60
2023/05/14 14:48:01;;;;;;;4.07;2.90;;;;;;;;;;4996282;28;20034;-59
2023/05/14 14:50:50;;;;;;;4.07;2.90;;;;;;;;;;5003432;28;20596;-60
2023/05/14 14:53:27;;;;;;;3.80;2.67;;;;;;;;;;5008466;28;20106;-60
2023/05/14 14:59:20;;;;;;;4.03;2.58;;;;;;;;;;5006180;28;20123;-59
2023/05/14 15:02:21;;;;;;;4.20;2.90;;;;;;;;;;5004294;28;20038;-60
2023/05/14 15:11:54;;;;;;;3.72;2.70;;;;;;;;;;4989939;28;20544;-60
2023/05/14 15:14:41;;;;;;;3.28;2.67;;;;;;;;;;4958740;28;20538;-61
2023/05/14 15:17:14;;;;;;;6.22;3.05;;;;;;;;;;4967460;28;20022;-60
2023/05/14 15:23:18;;;;;;;5.13;3.00;;;;;;;;;;4978769;28;20041;-60
2023/05/14 15:26:33;;;;;;;4.07;2.83;;;;;;;;;;4979862;28;20030;-59
2023/05/14 15:35:46;;;;;;;4.57;2.85;;;;;;;;;;4993528;28;20032;-60
2023/05/14 15:38:43;;;;;;;3.22;2.58;;;;;;;;;;4992906;28;20030;-60
2023/05/14 15:41:33;;;;;;;3.78;2.70;;;;;;;;;;4973836;28;20519;-61
2023/05/14 15:44:40;;;;;;;4.05;2.90;;;;;;;;;;4939112;28;20134;-60
2023/05/14 15:47:48;;;;;;;3.17;2.88;;;;;;;;;;4962546;28;20027;-61
2023/05/14 15:54:01;;;;;;;4.40;3.00;;;;;;;;;;4966354;28;20403;-60
2023/05/14 15:57:08;;;;;;;4.82;2.85;;;;;;;;;;4967156;28;20426;-60
2023/05/14 15:59:40;;;;;;;7.18;3.10;;;;;;;;;;4973554;28;20027;-60
2023/05/14 16:03:06;;;;;;;5.22;3.10;;;;;;;;;;4940422;28;20147;-60
2023/05/14 16:05:54;;;;;;;4.53;3.20;;;;;;;;;;4946651;28;20368;-60
2023/05/14 16:12:00;;;;;;;4.60;2.88;;;;;;;;;;4981407;28;20029;-61
2023/05/14 16:14:48;;;;;;;5.05;3.08;;;;;;;;;;4982163;28;20038;-61
2023/05/14 16:18:02;;;;;;;4.32;3.08;;;;;;;;;;4965800;28;20038;-62
2023/05/14 16:21:41;;;;;;;4.00;3.03;;;;;;;;;;4951789;28;20039;-61
2023/05/14 16:24:56;;;;;;;4.00;3.30;;;;;;;;;;4941519;28;20054;-60
2023/05/14 16:31:04;;;;;;;4.97;3.10;;;;;;;;;;4955933;28;20077;-60
2023/05/14 16:33:53;;;;;;;4.68;2.88;;;;;;;;;;4984134;28;20030;-61
2023/05/14 16:39:55;;;;;;;4.70;3.25;;;;;;;;;;4976954;28;20077;-60
2023/05/14 16:46:22;;;;;;;5.55;3.92;;;;;;;;;;4976278;28;20096;-60
2023/05/14 16:52:15;;;;;;;4.95;3.15;;;;;;;;;;4973269;28;20026;-60
2023/05/14 16:55:22;;;;;;;5.20;3.35;;;;;;;;;;4950820;28;20039;-59
2023/05/14 17:02:15;;;;;;;5.72;3.15;;;;;;;;;;4957205;28;20056;-59
2023/05/14 17:14:36;;;;;;;4.60;3.28;;;;;;;;;;4954601;28;20046;-60
2023/05/14 17:17:52;;;;;;;4.57;3.30;;;;;;;;;;4928230;28;20031;-62
2023/05/14 17:21:07;;;;;;;5.47;3.38;;;;;;;;;;4967062;28;20069;-60
2023/05/14 17:34:12;;;;;;;6.57;3.78;;;;;;;;;;4945169;28;20542;-61
2023/05/14 17:44:02;;;;;;;5.07;3.47;;;;;;;;;;4943807;28;20101;-60
2023/05/14 17:47:19;;;;;;;4.93;3.58;;;;;;;;;;4975496;28;20022;-60
2023/05/14 17:50:35;;;;;;;4.53;3.40;;;;;;;;;;4963954;28;20070;-59
2023/05/14 17:53:53;;;;;;;4.32;3.25;;;;;;;;;;4960528;28;20573;-61
2023/05/14 17:56:49;;;;;;;5.55;3.72;;;;;;;;;;4965920;28;20073;-59
2023/05/14 18:06:10;;;;;;;6.28;3.80;;;;;;;;;;4922249;28;20093;-60
2023/05/14 18:09:26;;;;;;;5.40;3.67;;;;;;;;;;4978345;28;20035;-61
2023/05/14 18:15:31;;;;;;;7.63;3.90;;;;;;;;;;4977378;28;20088;-60
2023/05/14 18:18:47;;;;;;;5.35;3.60;;;;;;;;;;4942848;28;20562;-60
2023/05/14 18:22:12;;;;;;;4.82;3.67;;;;;;;;;;4949235;28;20422;-57
2023/05/14 18:25:28;;;;;;;4.93;3.50;;;;;;;;;;4974375;28;20030;-59
2023/05/14 18:28:34;;;;;;;4.82;3.38;;;;;;;;;;4943757;28;20049;-60
2023/05/14 18:31:51;;;;;;;4.90;3.42;;;;;;;;;;4977689;28;20037;-60
2023/05/14 18:34:43;;;;;;;4.40;3.67;;;;;;;;;;4982208;28;20113;-59
2023/05/14 18:38:10;;;;;;;4.63;3.90;;;;;;;;;;4957677;28;20360;-58
2023/05/14 18:41:25;;;;;;;5.72;3.65;;;;;;;;;;4954893;28;20038;-59
2023/05/14 18:47:56;;;;;;;5.18;3.58;;;;;;;;;;4956046;28;20048;-58
2023/05/14 18:50:46;;;;;;;4.88;3.33;;;;;;;;;;4973814;28;20418;-59
2023/05/14 18:57:09;;;;;;;5.85;3.60;;;;;;;;;;4959544;28;20328;-59
2023/05/14 19:00:26;;;;;;;3.95;3.40;;;;;;;;;;4968270;28;20043;-60
2023/05/14 19:03:33;;;;;;;4.85;3.13;;;;;;;;;;4987402;28;20042;-58
2023/05/14 19:06:21;;;;;;;4.63;3.20;;;;;;;;;;4966366;28;20042;-60
2023/05/14 19:12:46;;;;;;;4.75;3.70;;;;;;;;;;4936035;28;20048;-59
2023/05/14 19:16:12;;;;;;;5.28;3.58;;;;;;;;;;4979771;28;20121;-60
2023/05/14 19:19:28;;;;;;;4.70;3.40;;;;;;;;;;4936101;28;20114;-59
2023/05/14 19:22:27;;;;;;;5.05;3.33;;;;;;;;;;4983583;28;20069;-59
2023/05/14 19:25:42;;;;;;;4.50;3.22;;;;;;;;;;4973942;28;20026;-59
2023/05/14 19:32:25;;;;;;;6.47;3.50;;;;;;;;;;4975991;28;21624;-61
2023/05/14 19:35:52;;;;;;;6.13;3.30;;;;;;;;;;4981998;28;20046;-61
2023/05/14 19:39:01;;;;;;;4.75;3.80;;;;;;;;;;4934034;28;20026;-60
2023/05/14 19:42:26;;;;;;;4.57;3.35;;;;;;;;;;4964068;28;20037;-59
2023/05/14 19:45:30;;;;;;;5.05;3.30;;;;;;;;;;4956164;28;20065;-59
2023/05/14 19:51:59;;;;;;;3.70;3.20;;;;;;;;;;4975529;28;20029;-59
2023/05/14 19:55:24;;;;;;;4.93;3.38;;;;;;;;;;4946558;28;20034;-60
2023/05/14 19:58:45;;;;;;;4.07;3.20;;;;;;;;;;4961238;28;20142;-58
2023/05/14 20:01:53;;;;;;;4.40;3.38;;;;;;;;;;4920356;28;20097;-59
2023/05/14 20:04:59;;;;;;;4.75;3.63;;;;;;;;;;4952425;28;20085;-59
2023/05/14 20:10:25;;;;;;;5.50;3.38;;;;;;;;;;4955828;28;20090;-59
2023/05/14 20:13:22;;;;;;;5.88;3.53;;;;;;;;;;4954335;28;20045;-58
2023/05/14 20:16:12;;;;;;;4.85;3.30;;;;;;;;;;5117147;23;20099;-60
2023/05/14 20:18:58;;;;;;;6.07;3.72;;;;;;;;;;4952326;28;20023;-61
2023/05/14 20:21:47;;;;;;;4.50;3.33;;;;;;;;;;4952216;28;20011;-60
2023/05/14 20:24:34;;;;;;;4.65;3.67;;;;;;;;;;4969506;28;20376;-61
2023/05/14 20:33:27;;;;;;;4.97;3.30;;;;;;;;;;4963406;28;20547;-60
2023/05/14 20:39:32;;;;;;;5.38;3.28;;;;;;;;;;4988766;28;20029;-60
2023/05/14 20:42:20;;;;;;;4.30;3.05;;;;;;;;;;4990513;28;20548;-60
2023/05/14 20:48:24;;;;;;;5.25;3.47;;;;;;;;;;4944844;28;20573;-60
2023/05/14 20:51:22;;;;;;;4.82;3.33;;;;;;;;;;4964000;28;20530;-60
2023/05/14 20:54:10;;;;;;;5.70;3.28;;;;;;;;;;4990287;28;20038;-60
2023/05/14 20:56:58;;;;;;;3.85;3.03;;;;;;;;;;4972434;28;20026;-59
2023/05/14 20:59:46;;;;;;;4.70;3.35;;;;;;;;;;4991001;28;20014;-60
2023/05/14 21:02:34;;;;;;;4.43;3.28;;;;;;;;;;4974294;28;20109;-60
2023/05/14 21:08:22;;;;;;;5.38;3.08;;;;;;;;;;4957051;28;20073;-60
2023/05/14 21:11:08;;;;;;;4.47;3.00;;;;;;;;;;4966431;28;20442;-59
2023/05/14 21:13:56;;;;;;;5.20;3.00;;;;;;;;;;4979949;28;20031;-60
2023/05/14 21:17:12;;;;;;;4.18;3.20;;;;;;;;;;4964893;28;20035;-60
2023/05/14 21:19:59;;;;;;;4.60;3.55;;;;;;;;;;4982365;28;20034;-60
2023/05/14 21:22:47;;;;;;;4.18;3.13;;;;;;;;;;4978570;28;20136;-60
2023/05/14 21:25:26;;;;;;;6.82;3.15;;;;;;;;;;4987842;28;20434;-60
2023/05/14 21:31:12;;;;;;;6.72;3.47;;;;;;;;;;4977818;28;20106;-60
2023/05/14 21:34:00;;;;;;;4.13;2.90;;;;;;;;;;4967859;28;20127;-61
2023/05/14 21:36:49;;;;;;;4.47;2.83;;;;;;;;;;4967737;28;20061;-60
2023/05/14 21:39:50;;;;;;;3.45;2.88;;;;;;;;;;4929629;28;20046;-60
2023/05/14 21:49:25;;;;;;;4.68;2.92;;;;;;;;;;4930000;28;20078;-60
2023/05/14 21:52:41;;;;;;;4.25;2.92;;;;;;;;;;4923564;28;20039;-59
2023/05/14 21:55:29;;;;;;;3.75;2.72;;;;;;;;;;4930176;28;20483;-59
2023/05/14 21:58:30;;;;;;;3.45;2.72;;;;;;;;;;4939451;28;20035;-60
2023/05/14 22:01:33;;;;;;;4.05;2.90;;;;;;;;;;4911822;28;20120;-59
2023/05/14 22:04:32;;;;;;;4.50;2.72;;;;;;;;;;4914130;28;20042;-59
2023/05/14 22:07:27;;;;;;;4.25;3.00;;;;;;;;;;4936622;28;20066;-60
2023/05/14 22:10:39;;;;;;;3.70;2.60;;;;;;;;;;4914812;28;20063;-59
2023/05/14 22:13:28;;;;;;;4.40;2.90;;;;;;;;;;4935438;28;20504;-59
2023/05/14 22:16:34;;;;;;;4.75;2.80;;;;;;;;;;4938768;28;20039;-60
2023/05/14 22:22:48;;;;;;;4.30;2.65;;;;;;;;;;4937996;28;20324;-60
2023/05/14 22:29:11;;;;;;;3.95;2.72;;;;;;;;;;4909413;28;20062;-60
2023/05/14 22:32:27;;;;;;;3.88;2.92;;;;;;;;;;4951773;28;20039;-59
2023/05/14 22:35:43;;;;;;;3.63;2.55;;;;;;;;;;4956717;28;20038;-59
2023/05/14 22:47:53;;;;;;;3.25;2.75;;;;;;;;;;4959999;28;20101;-59
2023/05/14 22:51:16;;;;;;;2.85;2.35;;;;;;;;;;4962105;28;20122;-60
2023/05/14 22:54:39;;;;;;;3.53;2.70;;;;;;;;;;4946537;28;20113;-59
2023/05/14 23:05:08;;;;;;;3.63;2.53;;;;;;;;;;4927830;28;20043;-60
2023/05/14 23:08:23;;;;;;;3.45;2.25;;;;;;;;;;4970936;28;20115;-58
2023/05/14 23:11:37;;;;;;;3.10;2.30;;;;;;;;;;4932380;28;20502;-58
2023/05/14 23:14:57;;;;;;;4.30;2.55;;;;;;;;;;4966302;28;20113;-58
2023/05/14 23:18:12;;;;;;;4.63;2.67;;;;;;;;;;4949737;28;20411;-59
2023/05/14 23:21:39;;;;;;;3.22;2.30;;;;;;;;;;4941991;28;20438;-59
2023/05/14 23:25:05;;;;;;;3.28;2.75;;;;;;;;;;4939047;28;20458;-58
2023/05/14 23:28:32;;;;;;;3.47;2.50;;;;;;;;;;4962842;28;20035;-59
2023/05/14 23:31:49;;;;;;;4.13;2.70;;;;;;;;;;4962452;28;20085;-58
2023/05/14 23:35:05;;;;;;;4.28;2.53;;;;;;;;;;4966455;28;20515;-59
2023/05/14 23:38:22;;;;;;;3.33;2.50;;;;;;;;;;4937867;28;20058;-59
2023/05/14 23:41:35;;;;;;;3.33;2.28;;;;;;;;;;4987026;28;20518;-58
2023/05/14 23:44:44;;;;;;;3.30;2.22;;;;;;;;;;4916069;28;20462;-58
2023/05/14 23:51:36;;;;;;;3.28;2.30;;;;;;;;;;5001790;28;20095;-58
2023/05/14 23:54:53;;;;;;;3.78;2.20;;;;;;;;;;4970819;28;20429;-59
2023/05/14 23:58:09;;;;;;;3.08;2.33;;;;;;;;;;4923071;28;20205;-59
